createdAt,value
2023-03-16T00:04:55.919Z,2.95
2023-03-16T00:15:03.407Z,2.72
2023-03-16T00:20:09.461Z,3.13
2023-03-16T00:25:15.318Z,2.63
2023-03-16T00:30:19.167Z,2.17
2023-03-16T00:35:23.781Z,1.67
2023-03-16T00:40:27.205Z,2.57
2023-03-16T00:45:30.517Z,1.90
2023-03-16T00:50:35.148Z,2.33
2023-03-16T00:55:38.449Z,2.20
2023-03-16T01:00:43.030Z,1.80
2023-03-16T01:05:47.655Z,2.03
2023-03-16T01:10:51.240Z,1.50
2023-03-16T01:15:54.551Z,1.90
2023-03-16T01:20:59.192Z,2.00
2023-03-16T01:26:02.936Z,2.00
2023-03-16T01:31:08.215Z,2.22
2023-03-16T01:36:15.670Z,2.17
2023-03-16T01:41:32.057Z,1.52
2023-03-16T01:46:35.508Z,1.90
2023-03-16T01:51:46.814Z,2.20
2023-03-16T01:56:58.109Z,1.83
2023-03-16T02:02:02.793Z,2.42
2023-03-16T02:07:11.344Z,2.22
2023-03-16T02:12:18.954Z,2.22
2023-03-16T02:17:28.623Z,1.90
2023-03-16T02:22:42.533Z,2.20
2023-03-16T02:27:54.540Z,2.17
2023-03-16T02:32:59.468Z,2.45
2023-03-16T02:38:03.325Z,2.33
2023-03-16T02:43:14.577Z,2.00
2023-03-16T02:48:29.778Z,2.33
2023-03-16T02:53:33.146Z,2.45
2023-03-16T02:58:38.378Z,2.70
2023-03-16T03:03:48.497Z,2.25
2023-03-16T03:08:52.430Z,2.30
2023-03-16T03:13:57.053Z,3.05
2023-03-16T03:19:04.933Z,2.88
2023-03-16T03:24:12.762Z,3.55
2023-03-16T03:29:16.211Z,2.80
2023-03-16T03:34:20.946Z,2.42
2023-03-16T03:39:24.718Z,2.73
2023-03-16T03:44:28.749Z,2.75
2023-03-16T03:49:33.779Z,2.30
2023-03-16T03:54:37.830Z,2.10
2023-03-16T03:59:45.887Z,3.17
2023-03-16T04:05:06.387Z,2.70
2023-03-16T04:15:17.416Z,3.20
2023-03-16T04:20:37.233Z,2.88
2023-03-16T04:25:41.251Z,3.55
2023-03-16T04:30:45.986Z,3.40
2023-03-16T04:36:03.685Z,2.95
2023-03-16T04:41:09.319Z,3.38
2023-03-16T04:46:18.941Z,3.55
2023-03-16T04:51:24.206Z,2.20
2023-03-16T04:56:41.606Z,2.60
2023-03-16T05:02:08.180Z,3.15
2023-03-16T05:07:13.767Z,2.85
2023-03-16T05:12:21.341Z,3.60
2023-03-16T05:17:29.767Z,2.63
2023-03-16T05:22:35.243Z,3.28
2023-03-16T05:28:02.107Z,2.97
2023-03-16T05:33:30.300Z,3.25
2023-03-16T05:38:43.853Z,3.58
2023-03-16T05:43:51.462Z,3.95
2023-03-16T05:48:56.316Z,3.50
2023-03-16T05:54:02.128Z,3.23
2023-03-16T05:59:11.672Z,3.00
2023-03-16T06:04:17.102Z,3.17
2023-03-16T06:09:22.168Z,3.95
2023-03-16T06:14:25.713Z,2.97
2023-03-16T06:19:32.148Z,3.75
2023-03-16T06:24:40.023Z,3.80
2023-03-16T06:29:43.771Z,3.20
2023-03-16T06:34:47.905Z,4.07
2023-03-16T06:39:53.135Z,3.90
2023-03-16T06:44:57.172Z,3.53
2023-03-16T06:50:00.626Z,3.95
2023-03-16T06:55:06.605Z,3.38
2023-03-16T07:00:15.704Z,3.15
2023-03-16T07:05:19.224Z,3.25
2023-03-16T07:10:26.247Z,3.57
2023-03-16T07:15:29.762Z,3.30
2023-03-16T07:20:35.725Z,3.20
2023-03-16T07:25:45.158Z,3.35
2023-03-16T07:31:02.905Z,3.10
2023-03-16T07:36:13.166Z,2.75
2023-03-16T07:41:25.085Z,4.22
2023-03-16T07:46:28.780Z,2.88
2023-03-16T07:51:32.143Z,3.55
2023-03-16T07:56:48.278Z,4.65
2023-03-16T08:02:01.372Z,4.13
2023-03-16T08:07:05.139Z,3.40
2023-03-16T08:12:24.661Z,4.68
2023-03-16T08:17:28.347Z,3.55
2023-03-16T08:22:32.771Z,3.70
2023-03-16T08:27:38.838Z,3.30
2023-03-16T08:32:43.598Z,3.15
2023-03-16T08:37:47.488Z,2.90
2023-03-16T08:42:52.503Z,3.10
2023-03-16T08:52:59.636Z,2.80
2023-03-16T08:58:04.324Z,3.35
2023-03-16T09:03:08.156Z,2.40
2023-03-16T09:08:12.720Z,2.92
2023-03-16T09:13:17.417Z,2.13
2023-03-16T09:18:21.266Z,2.37
2023-03-16T09:23:24.786Z,1.83
2023-03-16T09:28:30.863Z,1.85
2023-03-16T09:33:35.431Z,1.45
2023-03-16T09:38:39.335Z,2.17
2023-03-16T09:44:03.703Z,1.92
2023-03-16T09:49:08.019Z,1.52
2023-03-16T09:54:21.815Z,1.63
2023-03-16T09:59:29.172Z,1.10
2023-03-16T10:04:45.088Z,1.70
2023-03-16T10:09:56.703Z,1.90
2023-03-16T10:15:08.678Z,1.30
2023-03-16T10:20:17.978Z,1.30
2023-03-16T10:25:26.570Z,0.88
2023-03-16T10:30:34.413Z,0.93
2023-03-16T10:35:46.063Z,1.70
2023-03-16T10:40:49.586Z,1.40
2023-03-16T10:46:00.870Z,1.33
2023-03-16T10:51:09.425Z,1.30
2023-03-16T10:56:15.175Z,1.70
2023-03-16T11:01:22.907Z,1.20
2023-03-16T11:06:31.188Z,1.40
2023-03-16T11:11:35.390Z,1.70
2023-03-16T11:16:44.143Z,0.98
2023-03-16T11:21:55.161Z,1.25
2023-03-16T11:27:02.257Z,1.75
2023-03-16T11:32:15.393Z,1.60
2023-03-16T11:37:32.526Z,1.52
2023-03-16T11:42:40.193Z,1.08
2023-03-16T11:48:11.163Z,1.02
2023-03-16T11:53:22.815Z,1.02
2023-03-16T11:58:45.372Z,1.48
2023-03-16T12:04:24.560Z,0.95
2023-03-16T12:09:59.187Z,0.77
2023-03-16T12:15:24.348Z,0.93
2023-03-16T12:20:32.058Z,0.80
2023-03-16T12:25:40.353Z,0.98
2023-03-16T12:30:51.238Z,1.20
2023-03-16T12:36:02.963Z,1.02
2023-03-16T12:41:26.906Z,1.05
2023-03-16T12:46:38.974Z,1.00
2023-03-16T12:51:44.163Z,1.52
2023-03-16T12:56:50.796Z,1.33
2023-03-16T13:01:58.907Z,1.42
2023-03-16T13:07:09.526Z,1.60
2023-03-16T13:12:26.426Z,1.30
2023-03-16T13:17:32.468Z,8.63
2023-03-16T13:22:53.230Z,1.52
2023-03-16T13:28:00.532Z,0.93
2023-03-16T13:33:16.650Z,1.92
2023-03-16T13:38:22.981Z,1.10
2023-03-16T13:43:30.193Z,0.90
2023-03-16T13:48:40.327Z,0.80
2023-03-16T13:53:44.965Z,1.08
2023-03-16T13:58:52.097Z,1.17
2023-03-16T14:03:58.607Z,0.75
2023-03-16T14:09:05.240Z,1.38
2023-03-16T14:14:18.550Z,1.08
2023-03-16T14:19:28.591Z,1.27
2023-03-16T14:24:36.297Z,1.10
2023-03-16T14:29:44.294Z,1.20
2023-03-16T14:34:50.943Z,1.48
2023-03-16T14:40:03.264Z,0.98
2023-03-16T14:45:14.242Z,1.00
2023-03-16T14:50:24.189Z,1.25
2023-03-16T14:55:28.222Z,1.30
2023-03-16T15:00:42.689Z,1.58
2023-03-16T15:05:52.050Z,1.10
2023-03-16T15:10:56.434Z,1.25
2023-03-16T15:16:01.227Z,1.00
2023-03-16T15:21:08.028Z,1.53
2023-03-16T15:26:12.258Z,1.25
2023-03-16T15:31:17.218Z,1.73
2023-03-16T15:36:24.380Z,1.00
2023-03-16T15:41:32.341Z,1.00
2023-03-16T15:46:43.216Z,1.20
2023-03-16T15:51:46.570Z,0.88
2023-03-16T15:56:54.450Z,1.33
2023-03-16T16:01:59.503Z,0.95
2023-03-16T16:07:02.932Z,0.90
2023-03-16T16:12:06.850Z,0.85
2023-03-16T16:17:15.730Z,1.17
2023-03-16T16:22:19.100Z,1.23
2023-03-16T16:27:22.570Z,1.27
2023-03-16T16:32:27.386Z,1.17
2023-03-16T16:37:31.044Z,1.60
2023-03-16T16:42:34.565Z,1.52
2023-03-16T16:47:39.214Z,1.95
2023-03-16T16:52:42.752Z,1.63
2023-03-16T16:57:48.032Z,1.80
2023-03-16T17:02:55.884Z,1.70
2023-03-16T17:08:04.070Z,1.65
2023-03-16T17:13:07.898Z,1.55
2023-03-16T17:18:14.953Z,1.90
2023-03-16T17:23:29.263Z,1.88
2023-03-16T17:28:38.697Z,2.03
2023-03-16T17:33:43.416Z,1.90
2023-03-16T17:38:47.414Z,1.90
2023-03-16T17:43:51.187Z,2.17
2023-03-16T17:48:56.697Z,2.33
2023-03-16T17:59:13.782Z,2.15
2023-03-16T18:04:20.130Z,2.10
2023-03-16T18:09:23.663Z,2.50
2023-03-16T18:14:35.351Z,2.08
2023-03-16T18:19:40.857Z,2.47
2023-03-16T18:24:44.989Z,2.40
2023-03-16T18:29:49.128Z,2.35
2023-03-16T18:34:55.009Z,3.08
2023-03-16T18:39:58.397Z,3.15
2023-03-16T18:45:01.736Z,2.50
2023-03-16T18:50:07.747Z,2.45
2023-03-16T18:55:17.097Z,2.88
2023-03-16T19:00:22.733Z,2.72
2023-03-16T19:10:37.500Z,3.22
2023-03-16T19:20:50.148Z,6.00
2023-03-16T19:25:55.993Z,4.35
2023-03-16T19:30:59.459Z,2.45
2023-03-16T19:36:04.777Z,3.05
2023-03-16T19:41:19.404Z,3.33
2023-03-16T19:46:23.426Z,3.53
2023-03-16T19:51:29.291Z,3.35
2023-03-16T19:56:32.841Z,3.38
2023-03-16T20:01:36.160Z,3.75
2023-03-16T20:06:41.385Z,3.55
2023-03-16T20:11:45.309Z,3.15
2023-03-16T20:16:49.415Z,3.63
2023-03-16T20:21:54.386Z,3.40
2023-03-16T20:26:58.110Z,3.45
2023-03-16T20:32:02.204Z,4.00
2023-03-16T20:37:21.170Z,3.38
2023-03-16T20:42:28.634Z,3.85
2023-03-16T20:47:32.250Z,3.53
2023-03-16T20:52:37.062Z,4.78
2023-03-16T20:57:43.370Z,3.70
2023-03-16T21:02:47.300Z,3.08
2023-03-16T21:07:53.222Z,3.20
2023-03-16T21:12:58.185Z,3.63
2023-03-16T21:18:03.809Z,3.67
2023-03-16T21:28:18.337Z,3.15
2023-03-16T21:33:29.900Z,3.10
2023-03-16T21:38:37.365Z,3.75
2023-03-16T21:43:40.686Z,3.63
2023-03-16T21:48:44.623Z,4.03
2023-03-16T21:53:50.263Z,3.60
2023-03-16T22:03:58.456Z,3.75
2023-03-16T22:09:04.121Z,3.67
2023-03-16T22:19:14.725Z,3.67
2023-03-16T22:24:21.122Z,3.60
2023-03-16T22:29:26.521Z,3.42
2023-03-16T22:34:33.002Z,3.50
2023-03-16T22:39:39.669Z,3.90
2023-03-16T22:44:42.880Z,3.15
2023-03-16T22:49:46.234Z,2.95
2023-03-16T22:54:50.936Z,4.00
2023-03-16T22:59:54.497Z,2.77
2023-03-16T23:04:57.757Z,3.53
2023-03-16T23:10:02.501Z,3.13
2023-03-16T23:15:16.339Z,3.50
2023-03-16T23:20:22.610Z,2.95
2023-03-16T23:25:27.574Z,2.90
2023-03-16T23:30:32.055Z,2.67
2023-03-16T23:35:36.038Z,2.83
2023-03-16T23:40:41.520Z,3.00
2023-03-16T23:45:47.738Z,2.83
2023-03-16T23:50:54.666Z,2.90
2023-03-16T23:56:00.015Z,2.33
